createdAt,value
2018-03-21T00:01:16.130Z,27.30
2018-03-21T00:03:44.667Z,27.50
2018-03-21T00:06:12.440Z,27.50
2018-03-21T00:08:40.269Z,27.70
2018-03-21T00:11:07.956Z,29.00
2018-03-21T00:13:35.659Z,29.90
2018-03-21T00:16:04.109Z,31.10
2018-03-21T00:18:31.788Z,31.10
2018-03-21T00:20:59.439Z,31.40
2018-03-21T00:23:27.119Z,31.60
2018-03-21T00:25:54.758Z,31.90
2018-03-21T00:28:22.440Z,32.00
2018-03-21T00:30:50.866Z,32.00
2018-03-21T00:33:18.510Z,31.90
2018-03-21T00:35:46.172Z,32.40
2018-03-21T00:38:13.838Z,32.90
2018-03-21T00:40:41.505Z,33.30
2018-03-21T00:43:09.167Z,33.50
2018-03-21T00:45:36.939Z,33.30
2018-03-21T00:48:04.626Z,33.50
2018-03-21T00:50:32.299Z,34.00
2018-03-21T00:52:59.973Z,34.10
2018-03-21T00:55:28.383Z,33.90
2018-03-21T00:57:56.047Z,33.90
2018-03-21T01:00:23.861Z,33.60
2018-03-21T01:02:51.579Z,33.50
2018-03-21T01:05:19.273Z,33.50
2018-03-21T01:07:46.931Z,33.50
2018-03-21T01:10:14.622Z,33.30
2018-03-21T01:12:43.059Z,33.30
2018-03-21T01:15:10.744Z,33.30
2018-03-21T01:17:38.790Z,33.10
2018-03-21T01:20:06.502Z,33.00
2018-03-21T01:22:34.920Z,33.20
2018-03-21T01:25:02.594Z,33.80
2018-03-21T01:27:30.262Z,33.20
2018-03-21T01:29:57.922Z,33.10
2018-03-21T01:32:25.580Z,33.10
2018-03-21T01:34:53.249Z,33.40
2018-03-21T01:37:20.974Z,33.60
2018-03-21T01:39:48.640Z,32.70
2018-03-21T01:42:16.343Z,32.70
2018-03-21T01:44:44.044Z,32.70
2018-03-21T01:47:11.837Z,33.60
2018-03-21T01:49:39.546Z,33.10
2018-03-21T01:52:07.952Z,33.20
2018-03-21T01:54:35.648Z,33.20
2018-03-21T01:57:03.324Z,33.20
2018-03-21T01:59:30.970Z,33.40
2018-03-21T02:01:58.620Z,34.00
2018-03-21T02:04:26.452Z,33.20
2018-03-21T02:06:54.147Z,33.30
2018-03-21T02:09:21.811Z,33.40
2018-03-21T02:11:49.479Z,33.50
2018-03-21T02:14:17.167Z,33.10
2018-03-21T02:16:44.815Z,32.80
2018-03-21T02:19:12.471Z,32.90
2018-03-21T02:21:40.140Z,33.00
2018-03-21T02:24:07.947Z,33.00
2018-03-21T02:26:35.615Z,32.90
2018-03-21T02:29:03.306Z,32.90
2018-03-21T02:31:30.996Z,33.00
2018-03-21T02:33:59.520Z,32.90
2018-03-21T02:36:27.257Z,32.80
2018-03-21T02:38:55.124Z,32.90
2018-03-21T02:41:22.870Z,32.80
2018-03-21T02:43:51.380Z,33.00
2018-03-21T02:46:19.148Z,33.00
2018-03-21T02:48:46.936Z,33.00
2018-03-21T02:51:14.703Z,33.10
2018-03-21T02:53:42.475Z,33.10
2018-03-21T02:56:11.169Z,33.10
2018-03-21T02:58:39.692Z,33.10
2018-03-21T03:01:07.531Z,33.10
2018-03-21T03:03:35.287Z,33.10
2018-03-21T03:06:03.865Z,33.30
2018-03-21T03:08:32.364Z,33.20
2018-03-21T03:11:00.149Z,33.20
2018-03-21T03:13:27.893Z,33.10
2018-03-21T03:15:55.629Z,33.10
2018-03-21T03:18:23.409Z,33.10
2018-03-21T03:20:51.926Z,33.20
2018-03-21T03:23:19.670Z,33.10
2018-03-21T03:25:48.193Z,33.60
2018-03-21T03:28:15.925Z,33.30
2018-03-21T03:30:43.770Z,33.20
2018-03-21T03:33:11.563Z,33.10
2018-03-21T03:35:39.323Z,32.90
2018-03-21T03:38:07.161Z,32.90
2018-03-21T03:40:34.902Z,33.00
2018-03-21T03:43:03.462Z,33.00
2018-03-21T03:45:31.244Z,33.00
2018-03-21T03:47:59.811Z,33.10
2018-03-21T03:50:27.570Z,33.00
2018-03-21T03:52:55.360Z,32.90
2018-03-21T03:55:23.917Z,33.00
2018-03-21T03:57:51.700Z,32.90
2018-03-21T04:00:20.201Z,32.90
2018-03-21T04:02:47.948Z,32.70
2018-03-21T04:05:16.529Z,32.60
2018-03-21T04:07:45.037Z,32.60
2018-03-21T04:10:12.812Z,32.60
2018-03-21T04:12:40.557Z,32.50
2018-03-21T04:15:08.336Z,32.40
2018-03-21T04:17:36.100Z,32.40
2018-03-21T04:20:03.908Z,32.40
2018-03-21T04:22:31.682Z,32.10
2018-03-21T04:25:00.213Z,31.40
2018-03-21T04:27:27.973Z,31.40
2018-03-21T04:29:55.744Z,31.20
2018-03-21T04:32:23.535Z,30.80
2018-03-21T04:34:51.301Z,30.50
2018-03-21T04:37:19.077Z,30.20
2018-03-21T04:39:46.826Z,30.00
2018-03-21T04:42:14.576Z,29.90
2018-03-21T04:44:42.413Z,29.60
2018-03-21T04:47:10.237Z,29.30
2018-03-21T04:49:38.786Z,28.90
2018-03-21T04:52:06.599Z,28.80
2018-03-21T04:54:34.382Z,28.70
2018-03-21T04:57:02.152Z,28.60
2018-03-21T04:59:29.948Z,28.40
2018-03-21T05:01:57.707Z,28.20
2018-03-21T05:04:25.505Z,28.10
2018-03-21T05:06:53.325Z,27.90
2018-03-21T05:09:21.069Z,27.70
2018-03-21T05:11:48.836Z,27.60
2018-03-21T05:14:16.576Z,27.70
2018-03-21T05:16:44.386Z,27.50
2018-03-21T05:19:12.186Z,27.50
2018-03-21T05:21:40.688Z,27.50
2018-03-21T05:24:08.460Z,27.50
2018-03-21T05:26:36.208Z,27.40
2018-03-21T05:29:04.034Z,27.40
2018-03-21T05:31:31.883Z,27.40
2018-03-21T05:33:59.648Z,27.40
2018-03-21T05:36:27.403Z,27.50
2018-03-21T05:38:55.159Z,27.40
2018-03-21T05:41:23.001Z,27.40
2018-03-21T05:43:50.806Z,27.50
2018-03-21T05:46:18.651Z,27.40
2018-03-21T05:48:46.402Z,27.40
2018-03-21T05:51:14.165Z,27.20
2018-03-21T05:53:41.929Z,27.20
2018-03-21T05:56:09.741Z,27.20
2018-03-21T05:58:37.481Z,27.20
2018-03-21T06:01:05.242Z,27.50
2018-03-21T06:03:33.004Z,27.10
2018-03-21T06:06:00.740Z,26.90
2018-03-21T06:08:28.532Z,26.90
2018-03-21T06:10:56.317Z,26.90
2018-03-21T06:13:24.860Z,26.80
2018-03-21T06:15:52.600Z,26.70
2018-03-21T06:18:20.414Z,26.70
2018-03-21T06:20:48.176Z,26.60
2018-03-21T06:23:15.972Z,26.70
2018-03-21T06:25:44.500Z,26.60
2018-03-21T06:28:12.254Z,26.50
2018-03-21T06:30:40.015Z,26.60
2018-03-21T06:33:07.770Z,26.50
2018-03-21T06:35:35.565Z,26.40
2018-03-21T06:38:03.431Z,26.40
2018-03-21T06:40:31.166Z,26.30
2018-03-21T06:42:58.916Z,26.30
2018-03-21T06:45:26.657Z,26.30
2018-03-21T06:47:55.195Z,26.20
2018-03-21T06:50:22.979Z,26.20
2018-03-21T06:52:50.721Z,26.20
2018-03-21T06:55:18.488Z,26.30
2018-03-21T06:57:46.250Z,26.20
2018-03-21T07:00:14.018Z,26.10
2018-03-21T07:02:41.777Z,26.10
2018-03-21T07:05:09.524Z,26.30
2018-03-21T07:07:37.302Z,26.20
2018-03-21T07:10:05.092Z,26.30
2018-03-21T07:12:33.593Z,26.20
2018-03-21T07:15:14.023Z,26.10
2018-03-21T07:17:41.792Z,26.10
2018-03-21T07:20:10.314Z,26.00
2018-03-21T07:22:38.108Z,26.10
2018-03-21T07:25:05.919Z,26.00
2018-03-21T07:27:34.420Z,26.00
2018-03-21T07:30:02.196Z,26.00
2018-03-21T07:32:30.085Z,26.00
2018-03-21T07:34:57.904Z,26.00
2018-03-21T07:37:25.609Z,26.10
2018-03-21T07:39:53.291Z,26.10
2018-03-21T07:42:20.987Z,26.20
2018-03-21T07:44:48.710Z,26.30
2018-03-21T07:47:16.414Z,26.40
2018-03-21T07:49:44.830Z,26.40
2018-03-21T07:52:12.501Z,26.40
2018-03-21T07:54:40.195Z,26.40
2018-03-21T07:57:07.845Z,26.60
2018-03-21T07:59:35.518Z,26.70
2018-03-21T08:02:04.015Z,26.70
2018-03-21T08:04:32.539Z,26.80
2018-03-21T08:07:00.264Z,26.80
2018-03-21T08:12:02.682Z,26.80
2018-03-21T08:14:30.371Z,26.90
2018-03-21T08:16:58.932Z,26.80
2018-03-21T08:19:26.760Z,26.80
2018-03-21T08:21:54.646Z,26.80
2018-03-21T08:24:22.405Z,26.80
2018-03-21T08:26:50.192Z,26.60
2018-03-21T08:29:17.959Z,26.50
2018-03-21T08:31:46.546Z,26.20
2018-03-21T08:34:14.292Z,26.20
2018-03-21T08:36:42.068Z,26.30
2018-03-21T08:39:09.828Z,26.10
2018-03-21T08:41:37.588Z,26.00
2018-03-21T08:44:05.352Z,25.70
2018-03-21T08:46:33.148Z,25.50
2018-03-21T08:49:01.698Z,25.50
2018-03-21T08:51:29.535Z,25.50
2018-03-21T08:53:57.350Z,25.10
2018-03-21T08:56:25.891Z,25.00
2018-03-21T08:58:53.635Z,24.90
2018-03-21T09:01:21.378Z,25.00
2018-03-21T09:03:49.057Z,24.90
2018-03-21T09:06:16.739Z,24.90
2018-03-21T09:08:44.426Z,24.90
2018-03-21T09:11:12.152Z,25.00
2018-03-21T09:13:39.807Z,25.00
2018-03-21T09:16:07.482Z,25.10
2018-03-21T09:18:35.201Z,25.10
2018-03-21T09:21:03.637Z,24.70
2018-03-21T09:23:31.351Z,24.60
2018-03-21T09:25:59.767Z,24.10
2018-03-21T09:28:27.465Z,24.00
2018-03-21T09:30:55.134Z,24.10
2018-03-21T09:33:23.590Z,24.00
2018-03-21T09:35:51.289Z,24.00
2018-03-21T09:38:19.712Z,24.30
2018-03-21T09:40:47.386Z,24.30
2018-03-21T09:43:15.051Z,24.30
2018-03-21T09:45:42.723Z,24.40
2018-03-21T09:48:10.426Z,24.10
2018-03-21T09:50:38.126Z,24.50
2018-03-21T09:53:05.792Z,24.30
2018-03-21T09:55:33.476Z,24.60
2018-03-21T09:58:07.408Z,24.70
2018-03-21T10:00:35.841Z,24.20
2018-03-21T10:03:03.528Z,24.20
2018-03-21T10:05:31.961Z,24.00
2018-03-21T10:07:59.627Z,24.00
2018-03-21T10:10:31.978Z,24.00
2018-03-21T10:12:59.929Z,24.20
2018-03-21T10:15:27.651Z,24.30
2018-03-21T10:17:55.478Z,24.50
2018-03-21T10:20:24.433Z,24.60
2018-03-21T10:22:52.987Z,24.40
2018-03-21T10:25:20.762Z,24.30
2018-03-21T10:27:48.558Z,24.30
2018-03-21T10:30:16.327Z,24.30
2018-03-21T10:32:43.976Z,24.20
2018-03-21T10:35:11.762Z,24.00
2018-03-21T10:37:39.434Z,24.80
2018-03-21T10:40:07.140Z,24.10
2018-03-21T10:42:35.560Z,24.20
2018-03-21T10:45:03.430Z,24.20
2018-03-21T10:47:31.857Z,24.20
2018-03-21T10:49:59.561Z,24.10
2018-03-21T10:52:38.777Z,24.30
2018-03-21T10:54:55.719Z,24.40
2018-03-21T10:57:23.390Z,24.40
2018-03-21T10:59:51.040Z,24.50
2018-03-21T11:02:18.831Z,24.60
2018-03-21T11:04:46.524Z,24.30
2018-03-21T11:07:14.963Z,24.40
2018-03-21T11:09:42.691Z,24.40
2018-03-21T11:12:10.402Z,24.70
2018-03-21T11:14:38.100Z,24.90
2018-03-21T11:17:05.845Z,24.60
2018-03-21T11:19:34.285Z,24.50
2018-03-21T11:22:01.971Z,24.40
2018-03-21T11:24:29.647Z,24.50
2018-03-21T11:26:58.098Z,24.20
2018-03-21T11:29:25.802Z,24.10
2018-03-21T11:31:53.500Z,24.90
2018-03-21T11:34:21.227Z,24.40
2018-03-21T11:36:48.926Z,24.50
2018-03-21T11:39:16.631Z,24.40
2018-03-21T11:41:45.084Z,24.40
2018-03-21T11:44:12.816Z,24.40
2018-03-21T11:46:40.527Z,24.20
2018-03-21T11:49:08.986Z,24.20
2018-03-21T11:51:36.711Z,24.10
2018-03-21T11:54:04.434Z,24.00
2018-03-21T11:56:32.866Z,23.70
2018-03-21T11:59:00.530Z,23.70
2018-03-21T12:01:28.208Z,23.70
2018-03-21T12:03:55.913Z,23.60
2018-03-21T12:06:24.351Z,24.00
2018-03-21T12:08:52.325Z,23.90
2018-03-21T12:11:20.014Z,24.10
2018-03-21T12:13:48.479Z,23.80
2018-03-21T12:16:17.006Z,23.80
2018-03-21T12:18:44.672Z,23.80
2018-03-21T12:21:12.325Z,23.60
2018-03-21T12:23:40.026Z,23.60
2018-03-21T12:26:07.737Z,24.20
2018-03-21T12:28:35.398Z,23.90
2018-03-21T12:31:03.095Z,23.80
2018-03-21T12:33:30.759Z,23.90
2018-03-21T12:35:58.429Z,24.10
2018-03-21T12:38:26.122Z,24.10
2018-03-21T12:40:54.594Z,23.90
2018-03-21T12:43:23.087Z,23.90
2018-03-21T12:45:59.317Z,23.90
2018-03-21T12:48:30.561Z,23.90
2018-03-21T12:51:02.626Z,24.00
2018-03-21T12:53:30.289Z,24.00
2018-03-21T12:55:58.104Z,23.80
2018-03-21T12:58:26.396Z,23.70
2018-03-21T13:00:54.073Z,23.60
2018-03-21T13:03:21.753Z,23.80
2018-03-21T13:05:49.400Z,23.80
2018-03-21T13:08:17.071Z,23.60
2018-03-21T13:10:44.759Z,23.30
2018-03-21T13:13:13.333Z,23.10
2018-03-21T13:15:41.925Z,23.20
2018-03-21T13:18:09.754Z,23.20
2018-03-21T13:20:37.624Z,23.40
2018-03-21T13:23:06.277Z,23.20
2018-03-21T13:25:34.134Z,23.70
2018-03-21T13:28:01.957Z,23.40
2018-03-21T13:30:30.644Z,23.50
2018-03-21T13:32:58.524Z,23.50
2018-03-21T13:35:26.391Z,23.50
2018-03-21T13:37:54.220Z,23.30
2018-03-21T13:40:23.820Z,23.30
2018-03-21T13:42:51.665Z,23.20
2018-03-21T13:45:19.477Z,23.20
2018-03-21T13:47:47.406Z,23.10
2018-03-21T13:50:15.333Z,23.10
2018-03-21T13:52:54.122Z,22.70
2018-03-21T13:55:22.011Z,22.50
2018-03-21T13:57:49.914Z,22.80
2018-03-21T14:00:18.607Z,23.10
2018-03-21T14:02:46.571Z,23.10
2018-03-21T14:05:14.433Z,23.00
2018-03-21T14:07:42.283Z,22.90
2018-03-21T14:10:10.113Z,23.60
2018-03-21T14:12:37.981Z,23.60
2018-03-21T14:15:05.920Z,23.30
2018-03-21T14:17:34.515Z,23.00
2018-03-21T14:20:03.252Z,22.80
2018-03-21T14:22:31.107Z,22.70
2018-03-21T14:24:59.050Z,22.90
2018-03-21T14:27:26.887Z,22.90
2018-03-21T14:29:55.545Z,22.90
2018-03-21T14:32:23.486Z,22.80
2018-03-21T14:34:51.354Z,22.70
2018-03-21T14:37:19.196Z,22.80
2018-03-21T14:39:47.037Z,22.80
2018-03-21T14:42:15.648Z,23.00
2018-03-21T14:44:43.538Z,23.00
2018-03-21T14:47:11.387Z,23.10
2018-03-21T14:49:39.243Z,23.00
2018-03-21T14:52:07.206Z,22.90
2018-03-21T14:54:35.166Z,22.90
2018-03-21T14:57:02.983Z,22.90
2018-03-21T14:59:30.856Z,23.10
2018-03-21T15:01:58.755Z,23.10
2018-03-21T15:04:26.639Z,22.90
2018-03-21T15:06:54.528Z,22.70
2018-03-21T15:09:22.382Z,22.80
2018-03-21T15:11:50.239Z,22.80
2018-03-21T15:14:18.132Z,22.80
2018-03-21T15:16:46.012Z,22.80
2018-03-21T15:19:13.913Z,22.90
2018-03-21T15:21:42.576Z,22.90
2018-03-21T15:24:10.445Z,22.80
2018-03-21T15:26:38.347Z,22.70
2018-03-21T15:29:06.220Z,22.50
2018-03-21T15:31:34.088Z,22.60
2018-03-21T15:34:02.664Z,22.70
2018-03-21T15:36:31.024Z,22.70
2018-03-21T15:38:59.623Z,22.70
2018-03-21T15:41:27.480Z,22.70
2018-03-21T15:43:55.294Z,22.60
2018-03-21T15:46:23.185Z,22.60
2018-03-21T15:48:51.844Z,22.60
2018-03-21T15:51:19.739Z,22.50
2018-03-21T15:53:48.352Z,22.70
2018-03-21T15:56:16.241Z,22.60
2018-03-21T15:58:44.084Z,22.70
2018-03-21T16:01:11.969Z,22.70
2018-03-21T16:03:39.886Z,22.80
2018-03-21T16:06:08.516Z,22.90
2018-03-21T16:08:37.136Z,22.90
2018-03-21T16:11:05.030Z,22.90
2018-03-21T16:13:33.625Z,23.10
2018-03-21T16:16:01.437Z,23.10
2018-03-21T16:18:29.774Z,23.00
2018-03-21T16:20:57.631Z,23.00
2018-03-21T16:23:25.480Z,22.90
2018-03-21T16:25:54.073Z,23.00
2018-03-21T16:28:21.942Z,22.90
2018-03-21T16:30:49.781Z,23.20
2018-03-21T16:33:18.569Z,23.30
2018-03-21T16:35:47.193Z,23.40
2018-03-21T16:38:15.031Z,23.30
2018-03-21T16:40:42.899Z,23.50
2018-03-21T16:43:10.799Z,23.50
2018-03-21T16:45:38.636Z,23.60
2018-03-21T16:48:06.444Z,23.70
2018-03-21T16:50:34.305Z,23.60
2018-03-21T16:53:02.140Z,23.70
2018-03-21T16:55:30.090Z,23.60
2018-03-21T16:57:57.940Z,23.50
2018-03-21T17:00:25.808Z,23.50
2018-03-21T17:02:54.393Z,23.60
2018-03-21T17:05:23.060Z,23.60
2018-03-21T17:07:50.970Z,23.60
2018-03-21T17:10:18.950Z,23.80
2018-03-21T17:12:47.540Z,23.20
2018-03-21T17:15:15.392Z,23.20
2018-03-21T17:17:43.315Z,23.00
2018-03-21T17:20:11.994Z,22.60
2018-03-21T17:22:39.907Z,23.10
2018-03-21T17:25:07.773Z,22.60
2018-03-21T17:27:35.919Z,22.40
2018-03-21T17:30:04.604Z,22.40
2018-03-21T17:32:34.825Z,22.40
2018-03-21T17:35:06.081Z,22.40
2018-03-21T17:37:34.999Z,22.40
2018-03-21T17:40:03.446Z,22.30
2018-03-21T17:42:31.469Z,22.20
2018-03-21T17:44:59.516Z,22.20
2018-03-21T17:47:27.364Z,22.20
2018-03-21T17:49:55.279Z,22.10
2018-03-21T17:52:24.405Z,22.20
2018-03-21T17:54:52.380Z,22.40
2018-03-21T17:57:20.614Z,22.60
2018-03-21T17:59:48.502Z,22.80
2018-03-21T18:02:17.306Z,23.00
2018-03-21T18:04:45.270Z,22.90
2018-03-21T18:07:13.214Z,23.00
2018-03-21T18:09:41.845Z,23.20
2018-03-21T18:12:10.972Z,23.20
2018-03-21T18:14:39.526Z,23.40
2018-03-21T18:17:07.403Z,23.60
2018-03-21T18:19:35.271Z,23.70
2018-03-21T18:22:03.338Z,23.80
2018-03-21T18:24:31.280Z,24.00
2018-03-21T18:26:59.183Z,24.00
2018-03-21T18:29:27.063Z,24.00
2018-03-21T18:31:54.957Z,24.00
2018-03-21T18:34:24.404Z,23.90
2018-03-21T18:36:52.221Z,23.80
2018-03-21T18:39:20.991Z,23.60
2018-03-21T18:41:49.711Z,23.60
2018-03-21T18:44:17.576Z,23.60
2018-03-21T18:46:45.440Z,23.60
2018-03-21T18:49:13.379Z,23.70
2018-03-21T18:51:41.539Z,23.80
2018-03-21T18:54:10.226Z,23.90
2018-03-21T18:56:39.042Z,23.90
2018-03-21T18:59:06.967Z,23.80
2018-03-21T19:01:34.800Z,24.20
2018-03-21T19:04:02.803Z,23.60
2018-03-21T19:06:30.629Z,23.40
2018-03-21T19:08:58.638Z,23.40
2018-03-21T19:11:26.487Z,23.40
2018-03-21T19:13:54.333Z,23.40
2018-03-21T19:16:22.229Z,23.30
2018-03-21T19:18:49.976Z,23.30
2018-03-21T19:21:17.675Z,23.30
2018-03-21T19:23:45.416Z,23.30
2018-03-21T19:26:13.463Z,23.30
2018-03-21T19:28:41.863Z,23.30
2018-03-21T19:31:09.861Z,23.30
2018-03-21T19:33:38.379Z,23.40
2018-03-21T19:36:06.319Z,23.40
2018-03-21T19:38:34.847Z,23.40
2018-03-21T19:41:02.643Z,23.30
2018-03-21T19:43:30.421Z,23.40
2018-03-21T19:45:58.964Z,23.70
2018-03-21T19:48:26.741Z,23.60
2018-03-21T19:50:54.501Z,23.70
2018-03-21T19:53:22.250Z,23.60
2018-03-21T19:55:49.998Z,23.50
2018-03-21T19:58:17.797Z,23.60
2018-03-21T20:00:45.649Z,23.60
2018-03-21T20:03:13.410Z,23.60
2018-03-21T20:05:41.233Z,23.60
2018-03-21T20:08:09.063Z,23.50
2018-03-21T20:10:37.623Z,24.10
2018-03-21T20:13:07.584Z,23.50
2018-03-21T20:15:35.405Z,23.60
2018-03-21T20:18:03.292Z,23.60
2018-03-21T20:20:33.907Z,23.70
2018-03-21T20:23:02.261Z,23.70
2018-03-21T20:25:30.137Z,23.80
2018-03-21T20:27:58.025Z,23.80
2018-03-21T20:30:26.035Z,23.80
2018-03-21T20:32:53.864Z,23.90
2018-03-21T20:35:22.402Z,23.90
2018-03-21T20:37:50.518Z,23.80
2018-03-21T20:40:19.159Z,24.00
2018-03-21T20:42:47.170Z,23.90
2018-03-21T20:45:15.864Z,24.00
2018-03-21T20:47:44.421Z,24.00
2018-03-21T20:50:12.237Z,23.90
2018-03-21T20:52:42.318Z,23.90
2018-03-21T20:55:11.214Z,23.80
2018-03-21T20:57:39.751Z,23.70
2018-03-21T21:00:09.381Z,23.70
2018-03-21T21:02:37.994Z,23.60
2018-03-21T21:05:05.893Z,24.10
2018-03-21T21:07:36.941Z,23.60
2018-03-21T21:10:05.544Z,23.70
2018-03-21T21:12:33.405Z,23.70
2018-03-21T21:15:02.121Z,23.80
2018-03-21T21:17:30.716Z,23.90
2018-03-21T21:19:59.223Z,23.90
2018-03-21T21:22:26.981Z,23.90
2018-03-21T21:24:54.784Z,23.90
2018-03-21T21:27:22.644Z,23.80
2018-03-21T21:29:50.421Z,23.70
2018-03-21T21:32:18.283Z,23.60
2018-03-21T21:34:46.045Z,23.60
2018-03-21T21:37:13.804Z,23.60
2018-03-21T21:39:41.558Z,23.50
2018-03-21T21:42:09.336Z,23.70
2018-03-21T21:44:37.085Z,23.80
2018-03-21T21:47:04.868Z,23.80
2018-03-21T21:49:32.636Z,23.90
2018-03-21T21:52:00.307Z,24.10
2018-03-21T21:54:28.127Z,23.80
2018-03-21T21:56:55.991Z,23.80
2018-03-21T21:59:23.805Z,23.80
2018-03-21T22:01:51.597Z,24.20
2018-03-21T22:04:19.381Z,23.70
2018-03-21T22:06:47.152Z,23.70
2018-03-21T22:09:14.935Z,23.60
2018-03-21T22:11:42.724Z,23.60
2018-03-21T22:14:10.558Z,23.60
2018-03-21T22:16:38.323Z,23.60
2018-03-21T22:19:06.092Z,23.60
2018-03-21T22:21:33.904Z,23.60
2018-03-21T22:24:01.692Z,23.60
2018-03-21T22:26:29.466Z,23.60
2018-03-21T22:28:57.236Z,23.60
2018-03-21T22:31:25.030Z,23.60
2018-03-21T22:33:53.578Z,23.60
2018-03-21T22:36:21.299Z,23.50
2018-03-21T22:38:49.025Z,23.60
2018-03-21T22:41:16.717Z,23.60
2018-03-21T22:43:44.405Z,23.60
2018-03-21T22:46:12.202Z,23.60
2018-03-21T22:48:39.884Z,23.50
2018-03-21T22:51:08.377Z,24.10
2018-03-21T22:53:36.814Z,23.60
2018-03-21T22:56:04.622Z,23.60
2018-03-21T22:58:32.331Z,23.60
2018-03-21T23:01:00.044Z,23.60
2018-03-21T23:03:28.015Z,23.70
2018-03-21T23:05:55.783Z,23.60
2018-03-21T23:08:23.536Z,23.70
2018-03-21T23:10:51.332Z,23.70
2018-03-21T23:13:19.064Z,23.70
2018-03-21T23:15:46.847Z,23.80
2018-03-21T23:18:14.685Z,23.70
2018-03-21T23:20:43.221Z,23.70
2018-03-21T23:23:11.019Z,23.70
2018-03-21T23:25:39.636Z,23.80
2018-03-21T23:28:07.376Z,23.70
2018-03-21T23:30:35.972Z,23.90
2018-03-21T23:33:03.837Z,23.90
2018-03-21T23:35:31.605Z,23.90
2018-03-21T23:37:59.353Z,24.10
2018-03-21T23:40:27.126Z,24.10
2018-03-21T23:42:54.933Z,24.10
2018-03-21T23:45:22.699Z,24.10
2018-03-21T23:47:50.457Z,24.20
2018-03-21T23:50:18.213Z,24.20
2018-03-21T23:52:46.028Z,24.00
2018-03-21T23:55:14.665Z,24.10
2018-03-21T23:57:42.506Z,24.10
